sensor_id;sensor_type;location;lat;lon;timestamp;P1;durP1;ratioP1;P2;durP2;ratioP2
20884;SDS011;10602;48.000;9.654;2023-08-20T00:00:40;6.87;;;6.00;;
20884;SDS011;10602;48.000;9.654;2023-08-20T00:03:12;8.53;;;5.83;;
20884;SDS011;10602;48.000;9.654;2023-08-20T00:05:40;7.23;;;6.23;;
20884;SDS011;10602;48.000;9.654;2023-08-20T00:08:08;8.97;;;5.90;;
20884;SDS011;10602;48.000;9.654;2023-08-20T00:10:35;9.07;;;5.70;;
20884;SDS011;10602;48.000;9.654;2023-08-20T00:13:03;7.60;;;5.93;;
20884;SDS011;10602;48.000;9.654;2023-08-20T00:15:31;7.33;;;5.67;;
20884;SDS011;10602;48.000;9.654;2023-08-20T00:17:58;6.70;;;5.93;;
20884;SDS011;10602;48.000;9.654;2023-08-20T00:20:26;7.13;;;6.40;;
20884;SDS011;10602;48.000;9.654;2023-08-20T00:22:54;7.07;;;6.03;;
20884;SDS011;10602;48.000;9.654;2023-08-20T00:25:22;8.03;;;6.73;;
20884;SDS011;10602;48.000;9.654;2023-08-20T00:27:50;7.03;;;6.30;;
20884;SDS011;10602;48.000;9.654;2023-08-20T00:30:18;8.97;;;6.33;;
20884;SDS011;10602;48.000;9.654;2023-08-20T00:32:45;6.87;;;6.10;;
20884;SDS011;10602;48.000;9.654;2023-08-20T00:35:13;6.83;;;6.23;;
20884;SDS011;10602;48.000;9.654;2023-08-20T00:37:41;9.33;;;5.80;;
20884;SDS011;10602;48.000;9.654;2023-08-20T00:40:10;8.03;;;6.40;;
20884;SDS011;10602;48.000;9.654;2023-08-20T00:42:38;7.37;;;6.20;;
20884;SDS011;10602;48.000;9.654;2023-08-20T00:45:05;8.50;;;6.93;;
20884;SDS011;10602;48.000;9.654;2023-08-20T00:47:34;9.90;;;6.07;;
20884;SDS011;10602;48.000;9.654;2023-08-20T00:50:02;7.77;;;6.20;;
20884;SDS011;10602;48.000;9.654;2023-08-20T00:52:32;8.60;;;6.30;;
20884;SDS011;10602;48.000;9.654;2023-08-20T00:55:03;10.33;;;6.90;;
20884;SDS011;10602;48.000;9.654;2023-08-20T00:57:31;6.97;;;6.10;;
20884;SDS011;10602;48.000;9.654;2023-08-20T01:00:01;7.00;;;6.10;;
20884;SDS011;10602;48.000;9.654;2023-08-20T01:02:30;7.20;;;6.50;;
20884;SDS011;10602;48.000;9.654;2023-08-20T01:04:58;7.93;;;7.00;;
20884;SDS011;10602;48.000;9.654;2023-08-20T01:10:30;6.97;;;6.30;;
20884;SDS011;10602;48.000;9.654;2023-08-20T01:13:10;7.10;;;6.40;;
20884;SDS011;10602;48.000;9.654;2023-08-20T01:15:38;6.90;;;6.13;;
20884;SDS011;10602;48.000;9.654;2023-08-20T01:18:06;7.20;;;6.40;;
20884;SDS011;10602;48.000;9.654;2023-08-20T01:20:36;7.07;;;6.37;;
20884;SDS011;10602;48.000;9.654;2023-08-20T01:28:57;7.13;;;6.27;;
20884;SDS011;10602;48.000;9.654;2023-08-20T01:31:25;8.37;;;6.47;;
20884;SDS011;10602;48.000;9.654;2023-08-20T01:33:55;9.63;;;6.77;;
20884;SDS011;10602;48.000;9.654;2023-08-20T01:36:22;9.67;;;7.00;;
20884;SDS011;10602;48.000;9.654;2023-08-20T01:38:51;6.90;;;6.23;;
20884;SDS011;10602;48.000;9.654;2023-08-20T01:41:20;6.80;;;6.10;;
20884;SDS011;10602;48.000;9.654;2023-08-20T01:43:48;7.53;;;6.67;;
20884;SDS011;10602;48.000;9.654;2023-08-20T01:46:15;8.13;;;7.10;;
20884;SDS011;10602;48.000;9.654;2023-08-20T01:48:43;7.97;;;7.17;;
20884;SDS011;10602;48.000;9.654;2023-08-20T01:51:11;8.07;;;7.27;;
20884;SDS011;10602;48.000;9.654;2023-08-20T01:53:38;8.20;;;6.40;;
20884;SDS011;10602;48.000;9.654;2023-08-20T01:56:10;7.60;;;6.57;;
20884;SDS011;10602;48.000;9.654;2023-08-20T01:58:40;7.50;;;6.47;;
20884;SDS011;10602;48.000;9.654;2023-08-20T02:01:07;7.07;;;6.37;;
20884;SDS011;10602;48.000;9.654;2023-08-20T02:03:36;9.83;;;6.87;;
20884;SDS011;10602;48.000;9.654;2023-08-20T02:06:04;8.83;;;6.63;;
20884;SDS011;10602;48.000;9.654;2023-08-20T02:08:31;7.73;;;6.93;;
20884;SDS011;10602;48.000;9.654;2023-08-20T02:10:59;7.73;;;7.00;;
20884;SDS011;10602;48.000;9.654;2023-08-20T02:13:28;7.70;;;6.97;;
20884;SDS011;10602;48.000;9.654;2023-08-20T02:16:02;6.67;;;6.07;;
20884;SDS011;10602;48.000;9.654;2023-08-20T02:18:30;9.37;;;6.60;;
20884;SDS011;10602;48.000;9.654;2023-08-20T02:20:58;7.77;;;6.63;;
20884;SDS011;10602;48.000;9.654;2023-08-20T02:23:26;7.13;;;6.40;;
20884;SDS011;10602;48.000;9.654;2023-08-20T02:25:54;7.30;;;6.60;;
20884;SDS011;10602;48.000;9.654;2023-08-20T02:28:21;7.33;;;6.63;;
20884;SDS011;10602;48.000;9.654;2023-08-20T02:30:49;7.93;;;6.67;;
20884;SDS011;10602;48.000;9.654;2023-08-20T02:33:16;9.73;;;7.47;;
20884;SDS011;10602;48.000;9.654;2023-08-20T02:35:44;8.07;;;6.20;;
20884;SDS011;10602;48.000;9.654;2023-08-20T02:38:11;9.63;;;6.40;;
20884;SDS011;10602;48.000;9.654;2023-08-20T02:40:40;6.83;;;6.23;;
20884;SDS011;10602;48.000;9.654;2023-08-20T02:43:09;8.07;;;7.27;;
20884;SDS011;10602;48.000;9.654;2023-08-20T02:45:40;6.77;;;6.13;;
20884;SDS011;10602;48.000;9.654;2023-08-20T02:48:08;10.20;;;6.90;;
20884;SDS011;10602;48.000;9.654;2023-08-20T02:50:36;8.90;;;7.27;;
20884;SDS011;10602;48.000;9.654;2023-08-20T02:53:03;7.87;;;7.03;;
20884;SDS011;10602;48.000;9.654;2023-08-20T02:55:31;9.23;;;7.60;;
20884;SDS011;10602;48.000;9.654;2023-08-20T02:57:59;8.13;;;7.23;;
20884;SDS011;10602;48.000;9.654;2023-08-20T03:00:28;8.40;;;7.60;;
20884;SDS011;10602;48.000;9.654;2023-08-20T03:02:56;8.00;;;7.10;;
20884;SDS011;10602;48.000;9.654;2023-08-20T03:05:23;7.83;;;7.00;;
20884;SDS011;10602;48.000;9.654;2023-08-20T03:07:51;8.03;;;7.03;;
20884;SDS011;10602;48.000;9.654;2023-08-20T03:10:18;8.80;;;7.90;;
20884;SDS011;10602;48.000;9.654;2023-08-20T03:12:46;8.80;;;7.90;;
20884;SDS011;10602;48.000;9.654;2023-08-20T03:15:14;9.53;;;8.57;;
